createdAt,value
2018-01-10T00:00:00.960Z,100719.70
2018-01-10T00:02:29.305Z,100722.34
2018-01-10T00:04:57.657Z,100717.55
2018-01-10T00:07:26.822Z,100713.19
2018-01-10T00:09:55.174Z,100721.48
2018-01-10T00:12:23.552Z,100720.19
2018-01-10T00:14:51.907Z,100714.04
2018-01-10T00:17:21.049Z,100719.31
2018-01-10T00:19:49.429Z,100740.69
2018-01-10T00:22:17.775Z,100743.66
2018-01-10T00:24:46.153Z,100737.09
2018-01-10T00:27:14.500Z,100744.94
2018-01-10T00:29:43.648Z,100732.26
2018-01-10T00:32:12.015Z,100723.09
2018-01-10T00:34:40.375Z,100720.45
2018-01-10T00:37:08.746Z,100722.59
2018-01-10T00:39:37.859Z,100728.22
2018-01-10T00:42:06.238Z,100731.67
2018-01-10T00:44:34.576Z,100740.82
2018-01-10T00:47:02.943Z,100729.88
2018-01-10T00:49:31.286Z,100711.92
2018-01-10T00:51:59.666Z,100703.55
2018-01-10T00:54:27.999Z,100705.67
2018-01-10T00:56:57.154Z,100702.59
2018-01-10T00:59:25.482Z,100709.97
2018-01-10T01:01:53.850Z,100720.87
2018-01-10T01:04:22.978Z,100721.73
2018-01-10T01:06:51.329Z,100709.95
2018-01-10T01:09:19.690Z,100727.86
2018-01-10T01:11:48.888Z,100729.23
2018-01-10T01:14:17.218Z,100715.75
2018-01-10T01:16:45.598Z,100718.39
2018-01-10T01:19:13.943Z,100712.68
2018-01-10T01:21:42.318Z,100721.83
2018-01-10T01:24:10.714Z,100719.20
2018-01-10T01:26:39.066Z,100705.66
2018-01-10T01:29:08.181Z,100716.99
2018-01-10T01:31:36.546Z,100711.20
2018-01-10T01:34:05.650Z,100713.44
2018-01-10T01:36:33.990Z,100710.34
2018-01-10T01:39:02.363Z,100702.88
2018-01-10T01:41:30.708Z,100722.88
2018-01-10T01:43:59.074Z,100712.78
2018-01-10T01:46:27.402Z,100700.08
2018-01-10T01:48:55.731Z,100694.37
2018-01-10T01:51:24.112Z,100692.21
2018-01-10T01:53:52.445Z,100704.43
2018-01-10T01:56:21.602Z,100707.91
2018-01-10T01:58:49.929Z,100712.72
2018-01-10T02:01:19.063Z,100712.70
2018-01-10T02:03:47.454Z,100713.54
2018-01-10T02:06:15.795Z,100702.66
2018-01-10T02:08:44.156Z,100700.06
2018-01-10T02:11:13.277Z,100698.67
2018-01-10T02:13:41.654Z,100693.84
2018-01-10T02:16:10.058Z,100696.42
2018-01-10T02:18:38.398Z,100695.94
2018-01-10T02:21:06.790Z,100698.98
2018-01-10T02:23:35.125Z,100700.70
2018-01-10T02:26:03.467Z,100689.37
2018-01-10T02:28:31.833Z,100696.27
2018-01-10T02:31:00.162Z,100696.23
2018-01-10T02:33:28.530Z,100682.64
2018-01-10T02:35:56.858Z,100683.05
2018-01-10T02:38:25.186Z,100683.00
2018-01-10T02:40:53.545Z,100689.44
2018-01-10T02:43:21.865Z,100695.09
2018-01-10T02:45:51.005Z,100702.84
2018-01-10T02:48:19.337Z,100713.20
2018-01-10T02:50:47.722Z,100729.79
2018-01-10T02:53:16.126Z,100721.88
2018-01-10T02:55:44.470Z,100723.62
2018-01-10T02:58:13.606Z,100710.52
2018-01-10T03:00:41.970Z,100713.94
2018-01-10T03:03:10.301Z,100730.49
2018-01-10T03:05:38.674Z,100737.84
2018-01-10T03:08:06.998Z,100724.77
2018-01-10T03:10:35.331Z,100713.48
2018-01-10T03:13:03.694Z,100713.55
2018-01-10T03:15:32.025Z,100705.56
2018-01-10T03:18:00.378Z,100695.45
2018-01-10T03:20:29.477Z,100697.98
2018-01-10T03:22:58.602Z,100692.20
2018-01-10T03:25:26.946Z,100698.94
2018-01-10T03:27:56.073Z,100699.69
2018-01-10T03:30:24.438Z,100706.52
2018-01-10T03:32:52.801Z,100718.28
2018-01-10T03:35:21.917Z,100717.83
2018-01-10T03:37:50.284Z,100702.59
2018-01-10T03:40:19.372Z,100703.41
2018-01-10T03:42:48.505Z,100703.77
2018-01-10T03:45:16.888Z,100702.89
2018-01-10T03:47:45.233Z,100700.70
2018-01-10T03:50:14.373Z,100694.23
2018-01-10T03:52:42.701Z,100696.02
2018-01-10T03:55:11.814Z,100702.48
2018-01-10T03:57:40.353Z,100698.37
2018-01-10T04:00:08.669Z,100704.39
2018-01-10T04:02:36.997Z,100711.23
2018-01-10T04:05:05.417Z,100697.73
2018-01-10T04:07:34.553Z,100695.98
2018-01-10T04:10:02.946Z,100693.36
2018-01-10T04:12:31.277Z,100694.23
2018-01-10T04:14:59.693Z,100696.57
2018-01-10T04:17:28.041Z,100712.35
2018-01-10T04:19:56.406Z,100714.42
2018-01-10T04:22:24.796Z,100722.60
2018-01-10T04:24:53.221Z,100712.97
2018-01-10T04:27:21.553Z,100709.94
2018-01-10T04:29:49.945Z,100710.33
2018-01-10T04:32:18.270Z,100713.82
2018-01-10T04:34:46.615Z,100719.98
2018-01-10T04:37:14.992Z,100715.18
2018-01-10T04:39:43.316Z,100721.16
2018-01-10T04:42:12.448Z,100735.47
2018-01-10T04:44:40.773Z,100743.22
2018-01-10T04:47:09.172Z,100744.67
2018-01-10T04:49:38.308Z,100739.02
2018-01-10T04:52:06.713Z,100741.30
2018-01-10T04:54:35.045Z,100744.30
2018-01-10T04:57:04.180Z,100752.69
2018-01-10T04:59:33.376Z,100741.80
2018-01-10T05:02:01.753Z,100741.41
2018-01-10T05:04:30.085Z,100747.62
2018-01-10T05:06:58.456Z,100752.07
2018-01-10T05:09:27.596Z,100734.25
2018-01-10T05:11:55.932Z,100723.91
2018-01-10T05:14:24.272Z,100734.71
2018-01-10T05:16:52.640Z,100744.72
2018-01-10T05:19:20.992Z,100730.33
2018-01-10T05:21:49.352Z,100721.13
2018-01-10T05:24:17.716Z,100711.13
2018-01-10T05:26:46.048Z,100725.95
2018-01-10T05:29:14.414Z,100722.38
2018-01-10T05:31:42.745Z,100723.25
2018-01-10T05:34:11.136Z,100720.64
2018-01-10T05:36:39.466Z,100710.23
2018-01-10T05:39:07.805Z,100704.13
2018-01-10T05:41:36.180Z,100704.56
2018-01-10T05:44:04.516Z,100707.14
2018-01-10T05:46:32.904Z,100706.25
2018-01-10T05:49:02.003Z,100704.91
2018-01-10T05:51:31.136Z,100700.16
2018-01-10T05:53:59.464Z,100704.55
2018-01-10T05:56:28.573Z,100708.38
2018-01-10T05:58:57.697Z,100701.41
2018-01-10T06:01:26.100Z,100698.79
2018-01-10T06:03:54.479Z,100700.95
2018-01-10T06:06:22.839Z,100706.16
2018-01-10T06:08:51.171Z,100706.61
2018-01-10T06:11:20.308Z,100702.72
2018-01-10T06:13:48.686Z,100704.45
2018-01-10T06:16:17.065Z,100708.31
2018-01-10T06:18:45.376Z,100706.91
2018-01-10T06:21:13.752Z,100703.00
2018-01-10T06:23:42.091Z,100694.25
2018-01-10T06:26:10.439Z,100690.78
2018-01-10T06:28:39.555Z,100695.98
2018-01-10T06:31:07.944Z,100709.93
2018-01-10T06:33:36.308Z,100717.77
2018-01-10T06:36:04.676Z,100720.34
2018-01-10T06:38:33.064Z,100722.89
2018-01-10T06:41:01.452Z,100716.75
2018-01-10T06:43:29.824Z,100722.84
2018-01-10T06:45:58.156Z,100723.29
2018-01-10T06:48:26.552Z,100723.79
2018-01-10T06:50:55.659Z,100726.39
2018-01-10T06:53:24.795Z,100723.51
2018-01-10T06:55:53.156Z,100723.09
2018-01-10T06:58:21.508Z,100717.91
2018-01-10T07:00:50.663Z,100712.86
2018-01-10T07:03:19.003Z,100708.27
2018-01-10T07:05:47.336Z,100703.59
2018-01-10T07:08:15.707Z,100711.53
2018-01-10T07:10:44.075Z,100718.31
2018-01-10T07:13:12.451Z,100713.09
2018-01-10T07:15:40.828Z,100711.23
2018-01-10T07:18:09.219Z,100709.45
2018-01-10T07:20:37.595Z,100702.06
2018-01-10T07:23:05.935Z,100702.95
2018-01-10T07:25:34.331Z,100719.63
2018-01-10T07:28:02.675Z,100734.05
2018-01-10T07:30:31.012Z,100739.32
2018-01-10T07:32:59.392Z,100738.89
2018-01-10T07:35:27.767Z,100740.72
2018-01-10T07:37:56.141Z,100742.11
2018-01-10T07:40:24.475Z,100733.49
2018-01-10T07:42:52.807Z,100737.48
2018-01-10T07:45:21.173Z,100745.75
2018-01-10T07:47:49.515Z,100743.18
2018-01-10T07:50:17.900Z,100742.37
2018-01-10T07:52:46.259Z,100746.83
2018-01-10T07:55:14.583Z,100744.74
2018-01-10T07:57:42.941Z,100743.48
2018-01-10T08:00:11.315Z,100740.91
2018-01-10T08:02:39.654Z,100744.48
2018-01-10T08:05:08.790Z,100749.73
2018-01-10T08:07:37.127Z,100748.93
2018-01-10T08:10:06.264Z,100750.31
2018-01-10T08:12:34.606Z,100747.78
2018-01-10T08:15:02.940Z,100745.23
2018-01-10T08:17:31.303Z,100735.27
2018-01-10T08:19:59.650Z,100738.09
2018-01-10T08:22:28.015Z,100736.89
2018-01-10T08:24:56.342Z,100735.20
2018-01-10T08:27:24.710Z,100739.20
2018-01-10T08:29:53.076Z,100740.05
2018-01-10T08:32:21.416Z,100739.69
2018-01-10T08:34:50.519Z,100744.52
2018-01-10T08:37:18.904Z,100738.88
2018-01-10T08:39:47.253Z,100743.73
2018-01-10T08:42:15.622Z,100734.61
2018-01-10T08:44:43.962Z,100729.86
2018-01-10T08:47:12.337Z,100742.59
2018-01-10T08:49:40.668Z,100748.70
2018-01-10T08:52:09.814Z,100749.17
2018-01-10T08:54:38.143Z,100752.23
2018-01-10T08:57:07.235Z,100742.64
2018-01-10T08:59:35.609Z,100740.02
2018-01-10T09:02:03.946Z,100736.08
2018-01-10T09:04:32.266Z,100738.33
2018-01-10T09:07:00.644Z,100736.59
2018-01-10T09:09:29.739Z,100734.83
2018-01-10T09:11:58.874Z,100729.59
2018-01-10T09:14:27.250Z,100730.02
2018-01-10T09:16:55.585Z,100735.26
2018-01-10T09:19:23.958Z,100729.13
2018-01-10T09:21:52.291Z,100724.72
2018-01-10T09:24:20.660Z,100725.53
2018-01-10T09:26:48.980Z,100724.66
2018-01-10T09:29:17.310Z,100725.50
2018-01-10T09:31:45.666Z,100727.28
2018-01-10T09:34:14.046Z,100727.69
2018-01-10T09:36:42.398Z,100726.38
2018-01-10T09:39:10.732Z,100733.39
2018-01-10T09:41:39.092Z,100721.97
2018-01-10T09:44:07.470Z,100717.58
2018-01-10T09:46:35.796Z,100717.07
2018-01-10T09:49:04.135Z,100716.59
2018-01-10T09:51:32.506Z,100709.97
2018-01-10T09:54:00.846Z,100700.31
2018-01-10T09:56:29.222Z,100699.33
2018-01-10T09:58:57.634Z,100698.30
2018-01-10T10:01:26.015Z,100693.45
2018-01-10T10:03:54.338Z,100681.53
2018-01-10T10:06:22.662Z,100677.53
2018-01-10T10:08:51.814Z,100672.11
2018-01-10T10:11:20.164Z,100682.98
2018-01-10T10:13:49.294Z,100682.19
2018-01-10T10:16:17.629Z,100683.00
2018-01-10T10:18:46.006Z,100685.20
2018-01-10T10:21:14.341Z,100681.25
2018-01-10T10:23:42.670Z,100669.39
2018-01-10T10:26:11.048Z,100664.11
2018-01-10T10:28:39.392Z,100655.21
2018-01-10T10:31:08.539Z,100666.09
2018-01-10T10:33:36.877Z,100661.07
2018-01-10T10:36:05.250Z,100657.53
2018-01-10T10:38:33.570Z,100662.38
2018-01-10T10:41:01.949Z,100668.89
2018-01-10T10:43:30.293Z,100664.48
2018-01-10T10:45:58.622Z,100661.13
2018-01-10T10:48:26.990Z,100658.63
2018-01-10T10:50:55.376Z,100654.33
2018-01-10T10:53:23.738Z,100657.51
2018-01-10T10:55:52.130Z,100662.20
2018-01-10T10:58:20.574Z,100663.86
2018-01-10T11:00:48.906Z,100660.70
2018-01-10T11:03:18.066Z,100657.09
2018-01-10T11:05:46.400Z,100660.17
2018-01-10T11:08:15.650Z,100649.53
2018-01-10T11:10:43.995Z,100645.98
2018-01-10T11:13:12.313Z,100646.34
2018-01-10T11:15:40.725Z,100647.56
2018-01-10T11:18:09.045Z,100640.84
2018-01-10T11:20:37.429Z,100638.86
2018-01-10T11:23:05.789Z,100635.03
2018-01-10T11:25:34.245Z,100632.14
2018-01-10T11:31:08.825Z,100623.48
2018-01-10T11:33:37.165Z,100625.94
2018-01-10T11:36:06.318Z,100624.11
2018-01-10T11:38:34.649Z,100635.48
2018-01-10T11:41:02.986Z,100636.22
2018-01-10T11:43:31.353Z,100633.58
2018-01-10T11:45:59.697Z,100633.53
2018-01-10T11:48:28.069Z,100631.01
2018-01-10T11:50:56.446Z,100631.64
2018-01-10T11:53:24.785Z,100630.22
2018-01-10T11:55:53.890Z,100630.58
2018-01-10T11:58:23.037Z,100636.30
2018-01-10T12:00:51.377Z,100630.73
2018-01-10T12:03:19.737Z,100627.72
2018-01-10T12:05:48.880Z,100629.95
2018-01-10T12:08:17.261Z,100635.15
2018-01-10T12:10:45.853Z,100642.84
2018-01-10T12:13:14.232Z,100647.65
2018-01-10T12:15:42.557Z,100645.80
2018-01-10T12:18:11.671Z,100645.99
2018-01-10T12:20:40.029Z,100646.86
2018-01-10T12:23:09.181Z,100644.63
2018-01-10T12:25:37.509Z,100650.34
2018-01-10T12:28:06.601Z,100647.97
2018-01-10T12:30:35.749Z,100647.45
2018-01-10T12:33:04.725Z,100645.09
2018-01-10T12:35:33.057Z,100637.90
2018-01-10T12:38:02.182Z,100635.04
2018-01-10T12:40:30.538Z,100633.94
2018-01-10T12:42:58.898Z,100637.23
2018-01-10T12:45:27.270Z,100636.36
2018-01-10T12:47:55.661Z,100638.33
2018-01-10T12:50:24.756Z,100631.58
2018-01-10T12:52:53.897Z,100622.75
2018-01-10T12:55:22.260Z,100642.12
2018-01-10T12:57:50.594Z,100645.41
2018-01-10T13:00:18.956Z,100648.93
2018-01-10T13:02:47.312Z,100645.35
2018-01-10T13:05:15.686Z,100642.66
2018-01-10T13:07:44.029Z,100643.91
2018-01-10T13:10:13.124Z,100638.26
2018-01-10T13:12:42.336Z,100640.41
2018-01-10T13:15:10.751Z,100638.19
2018-01-10T13:17:39.120Z,100640.95
2018-01-10T13:20:07.470Z,100644.69
2018-01-10T13:22:35.849Z,100633.39
2018-01-10T13:25:04.189Z,100633.94
2018-01-10T13:27:32.526Z,100633.61
2018-01-10T13:30:00.906Z,100634.99
2018-01-10T13:32:29.242Z,100638.56
2018-01-10T13:34:58.376Z,100640.38
2018-01-10T13:37:26.747Z,100639.08
2018-01-10T13:39:55.088Z,100642.66
2018-01-10T13:42:24.240Z,100638.30
2018-01-10T13:44:52.581Z,100641.88
2018-01-10T13:47:21.382Z,100641.05
2018-01-10T13:49:49.729Z,100652.53
2018-01-10T13:52:18.828Z,100656.04
2018-01-10T13:54:47.960Z,100649.89
2018-01-10T13:57:16.360Z,100647.27
2018-01-10T13:59:44.708Z,100647.71
2018-01-10T14:02:13.064Z,100639.38
2018-01-10T14:04:42.188Z,100638.13
2018-01-10T14:07:10.509Z,100636.86
2018-01-10T14:09:38.872Z,100641.73
2018-01-10T14:12:07.218Z,100639.16
2018-01-10T14:14:35.608Z,100640.48
2018-01-10T14:17:03.944Z,100635.72
2018-01-10T14:19:32.996Z,100634.42
2018-01-10T14:22:01.348Z,100630.47
2018-01-10T14:24:29.744Z,100630.95
2018-01-10T14:26:58.073Z,100630.55
2018-01-10T14:29:27.224Z,100633.23
2018-01-10T14:31:55.604Z,100631.52
2018-01-10T14:34:23.948Z,100639.03
2018-01-10T14:36:52.276Z,100634.20
2018-01-10T14:39:20.644Z,100633.38
2018-01-10T14:41:48.988Z,100636.46
2018-01-10T14:44:17.361Z,100634.27
2018-01-10T14:46:45.692Z,100630.37
2018-01-10T14:49:14.051Z,100633.03
2018-01-10T14:51:42.379Z,100625.62
2018-01-10T14:54:10.779Z,100625.23
2018-01-10T14:56:39.872Z,100624.37
2018-01-10T14:59:08.253Z,100622.19
2018-01-10T15:01:36.592Z,100621.80
2018-01-10T15:04:05.692Z,100618.77
2018-01-10T15:06:34.843Z,100620.11
2018-01-10T15:09:03.179Z,100620.16
2018-01-10T15:11:31.503Z,100623.71
2018-01-10T15:14:00.588Z,100621.97
2018-01-10T15:16:28.941Z,100627.70
2018-01-10T15:18:57.312Z,100622.02
2018-01-10T15:21:25.652Z,100622.48
2018-01-10T15:23:54.032Z,100618.55
2018-01-10T15:26:23.133Z,100625.59
2018-01-10T15:28:52.273Z,100624.73
2018-01-10T15:31:20.619Z,100627.83
2018-01-10T15:33:49.756Z,100622.61
2018-01-10T15:36:18.101Z,100623.48
2018-01-10T15:38:46.475Z,100623.48
2018-01-10T15:41:14.823Z,100620.88
2018-01-10T15:43:44.099Z,100620.88
2018-01-10T15:46:12.529Z,100622.20
2018-01-10T15:48:40.924Z,100616.50
2018-01-10T15:51:09.980Z,100616.94
2018-01-10T15:53:38.507Z,100616.94
2018-01-10T15:56:07.120Z,100623.98
2018-01-10T15:58:35.799Z,100616.09
2018-01-10T16:01:04.196Z,100617.00
2018-01-10T16:03:32.611Z,100618.75
2018-01-10T16:06:00.984Z,100614.41
2018-01-10T16:08:30.353Z,100620.96
2018-01-10T16:10:59.499Z,100615.73
2018-01-10T16:13:27.871Z,100616.16
2018-01-10T16:15:57.492Z,100620.56
2018-01-10T16:18:25.843Z,100617.50
2018-01-10T16:20:56.949Z,100619.25
2018-01-10T16:23:25.295Z,100616.65
2018-01-10T16:25:53.653Z,100617.08
2018-01-10T16:28:22.061Z,100623.64
2018-01-10T16:30:50.404Z,100621.88
2018-01-10T16:33:18.762Z,100619.73
2018-01-10T16:35:47.912Z,100623.66
2018-01-10T16:38:16.270Z,100619.28
2018-01-10T16:40:45.444Z,100623.66
2018-01-10T16:43:14.616Z,100620.59
2018-01-10T16:45:43.334Z,100622.78
2018-01-10T16:48:11.794Z,100616.67
2018-01-10T16:50:40.911Z,100623.67
2018-01-10T16:53:09.301Z,100627.16
2018-01-10T16:55:37.682Z,100634.17
2018-01-10T16:58:07.551Z,100624.08
2018-01-10T17:00:35.891Z,100628.45
2018-01-10T17:03:04.275Z,100622.33
2018-01-10T17:05:32.619Z,100612.27
2018-01-10T17:08:00.975Z,100603.50
2018-01-10T17:10:30.121Z,100606.58
2018-01-10T17:12:58.900Z,100610.52
2018-01-10T17:15:27.251Z,100604.38
2018-01-10T17:17:56.371Z,100612.27
2018-01-10T17:20:24.755Z,100611.38
2018-01-10T17:22:53.177Z,100612.25
2018-01-10T17:25:21.594Z,100616.66
2018-01-10T17:27:49.974Z,100617.53
2018-01-10T17:30:18.298Z,100616.22
2018-01-10T17:32:47.387Z,100616.22
2018-01-10T17:35:16.286Z,100620.59
2018-01-10T17:37:44.770Z,100620.17
2018-01-10T17:40:13.574Z,100622.78
2018-01-10T17:42:43.718Z,100625.83
2018-01-10T17:45:13.110Z,100629.31
2018-01-10T17:47:41.647Z,100611.38
2018-01-10T17:50:11.154Z,100620.14
2018-01-10T17:52:39.548Z,100621.01
2018-01-10T17:55:10.011Z,100616.63
2018-01-10T17:57:42.830Z,100618.38
2018-01-10T18:00:13.180Z,100617.50
2018-01-10T18:02:42.511Z,100626.26
2018-01-10T18:05:11.738Z,100633.25
2018-01-10T18:07:40.102Z,100626.27
2018-01-10T19:25:10.527Z,100654.66
2018-01-10T19:27:38.943Z,100658.58
2018-01-10T19:30:07.476Z,100659.44
2018-01-10T19:32:36.604Z,100656.80
2018-01-10T19:35:05.733Z,100657.70
2018-01-10T19:37:37.686Z,100662.07
2018-01-10T19:40:06.064Z,100669.05
2018-01-10T19:42:34.902Z,100660.75
2018-01-10T19:45:03.374Z,100652.87
2018-01-10T19:47:33.338Z,100659.44
2018-01-10T19:50:01.794Z,100659.45
2018-01-10T19:52:30.181Z,100659.91
2018-01-10T19:54:59.345Z,100662.95
2018-01-10T19:57:27.711Z,100655.95
2018-01-10T19:59:56.250Z,100659.02
2018-01-10T20:02:24.610Z,100656.39
2018-01-10T20:04:53.026Z,100659.91
2018-01-10T20:07:21.685Z,100657.72
2018-01-10T20:09:50.043Z,100654.67
2018-01-10T20:12:19.983Z,100657.73
2018-01-10T20:14:48.385Z,100657.30
2018-01-10T20:17:19.589Z,100656.42
2018-01-10T20:19:47.945Z,100655.98
2018-01-10T20:22:16.377Z,100657.30
2018-01-10T20:24:44.985Z,100651.63
2018-01-10T20:27:14.888Z,100655.99
2018-01-10T20:29:44.734Z,100658.62
2018-01-10T20:32:13.097Z,100659.92
2018-01-10T20:34:42.224Z,100659.92
2018-01-10T20:37:10.569Z,100666.05
2018-01-10T20:39:39.125Z,100658.61
2018-01-10T20:42:08.714Z,100665.16
2018-01-10T20:44:37.113Z,100664.72
2018-01-10T20:47:06.285Z,100664.73
2018-01-10T20:49:34.669Z,100668.20
2018-01-10T20:52:03.064Z,100665.59
2018-01-10T20:54:32.182Z,100668.20
2018-01-10T20:57:01.346Z,100668.18
2018-01-10T20:59:29.710Z,100677.33
2018-01-10T21:01:58.111Z,100672.08
2018-01-10T21:04:26.485Z,100676.02
2018-01-10T21:06:54.837Z,100671.18
2018-01-10T21:09:23.252Z,100665.03
2018-01-10T21:11:51.677Z,100667.63
2018-01-10T21:14:20.038Z,100668.96
2018-01-10T21:16:49.307Z,100668.93
2018-01-10T21:19:17.689Z,100671.53
2018-01-10T21:21:46.801Z,100680.72
2018-01-10T21:24:15.953Z,100680.30
2018-01-10T21:26:44.305Z,100682.48
2018-01-10T21:29:12.686Z,100677.64
2018-01-10T21:31:41.904Z,100678.95
2018-01-10T21:34:10.957Z,100684.59
2018-01-10T21:36:39.757Z,100685.45
2018-01-10T21:39:08.098Z,100690.22
2018-01-10T21:41:37.284Z,100688.92
2018-01-10T21:44:05.644Z,100653.39
2018-01-10T21:46:34.013Z,100692.34
2018-01-10T21:49:02.397Z,100694.53
2018-01-10T21:51:30.741Z,100690.12
2018-01-10T21:53:59.147Z,100690.59
2018-01-10T21:56:27.511Z,100693.65
2018-01-10T21:58:55.868Z,100691.45
2018-01-10T22:01:24.236Z,100693.61
2018-01-10T22:03:53.383Z,100690.11
2018-01-10T22:06:21.728Z,100697.53
2018-01-10T22:08:50.130Z,100696.25
2018-01-10T22:11:18.505Z,100699.73
2018-01-10T22:13:46.881Z,100692.77
2018-01-10T22:16:15.221Z,100696.69
2018-01-10T22:18:43.587Z,100689.66
2018-01-10T22:21:12.717Z,100688.77
2018-01-10T22:23:41.135Z,100683.06
2018-01-10T22:26:09.464Z,100685.27
2018-01-10T22:28:37.817Z,100683.91
2018-01-10T22:31:06.964Z,100682.97
2018-01-10T22:33:35.696Z,100680.36
2018-01-10T22:36:04.820Z,100684.72
2018-01-10T22:38:33.289Z,100683.38
2018-01-10T22:41:01.717Z,100680.80
2018-01-10T22:43:30.092Z,100687.77
2018-01-10T22:45:58.908Z,100688.14
2018-01-10T22:48:27.288Z,100690.34
2018-01-10T22:50:55.736Z,100682.45
2018-01-10T22:53:24.152Z,100685.10
2018-01-10T22:55:53.396Z,100688.12
2018-01-10T22:58:21.760Z,100688.55
2018-01-10T23:00:50.135Z,100679.34
2018-01-10T23:03:18.532Z,100677.61
2018-01-10T23:05:46.961Z,100673.67
2018-01-10T23:08:16.141Z,100671.06
2018-01-10T23:10:44.484Z,100675.84
2018-01-10T23:13:12.855Z,100678.06
2018-01-10T23:15:41.192Z,100676.29
2018-01-10T23:18:09.572Z,100674.11
2018-01-10T23:20:38.711Z,100671.91
2018-01-10T23:23:07.040Z,100679.72
2018-01-10T23:25:35.412Z,100674.48
2018-01-10T23:28:03.769Z,100671.87
2018-01-10T23:30:32.143Z,100673.19
2018-01-10T23:33:00.508Z,100670.13
2018-01-10T23:35:28.879Z,100678.43
2018-01-10T23:37:57.244Z,100675.38
2018-01-10T23:40:25.590Z,100680.20
2018-01-10T23:42:54.727Z,100673.66
2018-01-10T23:45:23.211Z,100682.37
2018-01-10T23:47:51.555Z,100685.88
2018-01-10T23:50:20.679Z,100681.09
2018-01-10T23:52:49.047Z,100678.92
2018-01-10T23:55:17.387Z,100677.17
2018-01-10T23:57:45.764Z,100686.27
